createdAt,value
2022-08-17T00:01:37.871Z,56.94
2022-08-17T00:04:20.948Z,56.51
2022-08-17T00:06:49.104Z,56.62
2022-08-17T00:09:18.836Z,56.55
2022-08-17T00:12:40.598Z,56.32
2022-08-17T00:14:35.313Z,56.14
2022-08-17T00:17:04.001Z,56.44
2022-08-17T00:19:32.822Z,56.75
2022-08-17T00:22:32.564Z,56.93
2022-08-17T00:24:50.524Z,56.67
2022-08-17T00:27:18.550Z,56.56
2022-08-17T00:29:46.131Z,56.96
2022-08-17T00:33:12.568Z,57.12
2022-08-17T00:35:06.095Z,57.11
2022-08-17T00:37:33.271Z,56.99
2022-08-17T00:40:00.504Z,57.24
2022-08-17T00:42:30.917Z,57.61
2022-08-17T00:44:58.884Z,57.44
2022-08-17T00:47:26.056Z,57.32
2022-08-17T00:49:53.385Z,57.26
2022-08-17T00:52:21.902Z,57.36
2022-08-17T00:54:49.867Z,57.23
2022-08-17T00:57:19.954Z,57.16
2022-08-17T01:00:02.024Z,57.42
2022-08-17T01:02:34.391Z,57.64
2022-08-17T01:05:10.875Z,57.70
2022-08-17T01:07:38.147Z,57.65
2022-08-17T01:10:06.377Z,57.59
2022-08-17T01:12:35.574Z,57.78
2022-08-17T01:15:03.103Z,57.66
2022-08-17T01:17:30.234Z,57.75
2022-08-17T01:19:57.459Z,57.86
2022-08-17T01:22:25.071Z,57.63
2022-08-17T01:25:02.041Z,58.02
2022-08-17T01:27:29.429Z,57.82
2022-08-17T01:29:59.657Z,57.49
2022-08-17T01:32:27.608Z,58.11
2022-08-17T01:34:54.898Z,57.88
2022-08-17T01:37:29.004Z,57.84
2022-08-17T01:40:19.853Z,57.90
2022-08-17T01:42:50.949Z,57.90
2022-08-17T01:45:26.899Z,58.11
2022-08-17T01:47:54.249Z,57.76
2022-08-17T01:50:24.637Z,57.94
2022-08-17T01:52:54.366Z,58.19
2022-08-17T01:55:27.317Z,58.11
2022-08-17T01:57:54.718Z,57.88
2022-08-17T02:00:21.755Z,57.94
2022-08-17T02:02:48.951Z,57.88
2022-08-17T02:05:16.306Z,58.10
2022-08-17T02:07:59.892Z,58.24
2022-08-17T02:10:32.921Z,57.99
2022-08-17T02:13:01.734Z,58.63
2022-08-17T02:15:29.390Z,58.33
2022-08-17T02:17:56.580Z,58.34
2022-08-17T02:20:41.366Z,58.34
2022-08-17T02:23:11.216Z,58.46
2022-08-17T02:25:38.214Z,58.22
2022-08-17T02:28:05.358Z,58.42
2022-08-17T02:30:50.216Z,58.54
2022-08-17T02:33:21.014Z,58.40
2022-08-17T02:35:48.766Z,58.82
2022-08-17T02:38:15.791Z,58.81
2022-08-17T02:40:42.875Z,58.93
2022-08-17T02:43:13.920Z,58.75
2022-08-17T02:45:40.928Z,58.83
2022-08-17T02:48:08.053Z,58.96
2022-08-17T02:50:35.051Z,58.77
2022-08-17T02:53:02.928Z,58.69
2022-08-17T02:55:34.555Z,58.90
2022-08-17T02:58:03.875Z,59.34
2022-08-17T03:00:35.488Z,58.91
2022-08-17T03:03:04.482Z,59.00
2022-08-17T03:05:32.504Z,58.88
2022-08-17T03:07:59.556Z,58.97
2022-08-17T03:10:26.742Z,58.97
2022-08-17T03:12:54.156Z,59.25
2022-08-17T03:15:25.205Z,59.20
2022-08-17T03:17:53.366Z,59.07
2022-08-17T03:20:20.873Z,59.15
2022-08-17T03:22:53.201Z,58.73
2022-08-17T03:25:33.306Z,59.23
2022-08-17T03:28:01.550Z,59.13
2022-08-17T03:30:28.807Z,59.01
2022-08-17T03:32:57.624Z,59.32
2022-08-17T03:35:26.186Z,59.23
2022-08-17T03:38:00.961Z,59.14
2022-08-17T03:40:34.770Z,59.49
2022-08-17T03:43:16.022Z,59.48
2022-08-17T03:46:02.086Z,59.51
2022-08-17T03:48:47.838Z,59.63
2022-08-17T03:51:36.806Z,60.05
2022-08-17T03:54:22.854Z,59.88
2022-08-17T03:57:03.839Z,59.97
2022-08-17T03:59:31.334Z,60.02
2022-08-17T04:02:01.089Z,59.83
2022-08-17T04:04:28.285Z,59.57
2022-08-17T04:06:55.293Z,59.82
2022-08-17T04:09:22.340Z,60.04
2022-08-17T04:11:49.369Z,59.84
2022-08-17T04:14:16.432Z,59.91
2022-08-17T04:16:43.381Z,59.90
2022-08-17T04:19:10.486Z,59.68
2022-08-17T04:21:37.572Z,60.09
2022-08-17T04:24:05.242Z,60.17
2022-08-17T04:26:53.947Z,60.14
2022-08-17T04:29:19.644Z,60.40
2022-08-17T04:31:46.653Z,60.15
2022-08-17T04:34:13.685Z,60.36
2022-08-17T04:36:40.668Z,60.12
2022-08-17T04:39:17.555Z,60.35
2022-08-17T04:42:03.856Z,60.52
2022-08-17T04:44:37.711Z,60.58
2022-08-17T04:47:05.602Z,60.38
2022-08-17T04:49:33.703Z,60.53
2022-08-17T04:52:04.591Z,60.35
2022-08-17T04:54:32.236Z,60.71
2022-08-17T04:57:02.654Z,60.80
2022-08-17T04:59:30.306Z,60.91
2022-08-17T05:01:58.162Z,60.77
2022-08-17T05:04:34.343Z,61.11
2022-08-17T05:07:03.358Z,61.34
2022-08-17T05:09:30.493Z,61.31
2022-08-17T05:12:01.497Z,61.23
2022-08-17T05:14:32.303Z,61.07
2022-08-17T05:17:01.497Z,61.35
2022-08-17T05:19:31.150Z,61.21
2022-08-17T05:21:58.136Z,60.89
2022-08-17T05:24:43.244Z,61.17
2022-08-17T05:27:17.804Z,61.30
2022-08-17T05:29:46.388Z,60.96
2022-08-17T05:32:39.691Z,61.11
2022-08-17T05:35:01.137Z,61.15
2022-08-17T05:37:28.098Z,61.18
2022-08-17T05:39:55.269Z,61.11
2022-08-17T05:42:22.509Z,61.13
2022-08-17T05:44:49.610Z,61.57
2022-08-17T05:47:17.061Z,61.25
2022-08-17T05:49:44.166Z,61.31
2022-08-17T05:52:24.155Z,61.33
2022-08-17T05:55:03.860Z,61.53
2022-08-17T06:00:50.974Z,61.41
2022-08-17T06:03:48.650Z,61.98
2022-08-17T06:06:38.053Z,61.74
2022-08-17T06:09:14.111Z,61.84
2022-08-17T06:11:46.532Z,62.26
2022-08-17T06:14:42.751Z,62.23
2022-08-17T06:17:12.961Z,62.67
2022-08-17T06:19:42.668Z,62.69
2022-08-17T06:22:12.255Z,63.23
2022-08-17T06:24:54.479Z,63.27
2022-08-17T06:27:53.614Z,63.28
2022-08-17T06:30:21.942Z,63.64
2022-08-17T06:32:50.174Z,63.87
2022-08-17T06:35:38.248Z,63.67
2022-08-17T06:38:37.863Z,64.00
2022-08-17T06:41:17.224Z,64.29
2022-08-17T06:44:06.299Z,63.97
2022-08-17T06:46:41.934Z,64.00
2022-08-17T06:49:26.050Z,63.69
2022-08-17T06:52:45.402Z,63.75
2022-08-17T06:55:26.580Z,63.54
2022-08-17T06:57:58.465Z,63.67
2022-08-17T07:00:33.937Z,63.28
2022-08-17T07:03:08.802Z,63.64
2022-08-17T07:05:46.562Z,63.20
2022-08-17T07:08:45.284Z,63.17
2022-08-17T07:11:15.287Z,63.18
2022-08-17T07:14:17.382Z,62.83
2022-08-17T07:16:47.235Z,63.16
2022-08-17T07:19:16.910Z,62.83
2022-08-17T07:22:05.617Z,62.73
2022-08-17T07:24:52.327Z,62.69
2022-08-17T07:27:21.903Z,62.59
2022-08-17T07:29:57.737Z,62.58
2022-08-17T07:32:31.727Z,62.38
2022-08-17T07:35:10.709Z,62.62
2022-08-17T07:37:39.894Z,62.13
2022-08-17T07:40:31.079Z,61.77
2022-08-17T07:43:03.301Z,61.13
2022-08-17T07:45:50.603Z,61.73
2022-08-17T07:48:20.701Z,61.35
2022-08-17T07:50:49.577Z,61.12
2022-08-17T07:53:23.303Z,60.46
2022-08-17T07:55:50.785Z,60.68
2022-08-17T07:58:20.002Z,60.58
2022-08-17T08:00:47.159Z,59.79
2022-08-17T08:03:27.334Z,59.98
2022-08-17T08:05:57.850Z,59.86
2022-08-17T08:08:28.333Z,59.83
2022-08-17T08:11:02.723Z,59.38
2022-08-17T08:13:30.393Z,58.86
2022-08-17T08:16:27.317Z,58.53
2022-08-17T08:19:00.059Z,58.70
2022-08-17T08:21:43.187Z,58.74
2022-08-17T08:24:16.232Z,58.41
2022-08-17T08:26:58.772Z,58.57
2022-08-17T08:29:53.439Z,58.22
2022-08-17T08:32:40.010Z,58.67
2022-08-17T08:35:18.287Z,57.69
2022-08-17T08:37:52.403Z,57.69
2022-08-17T08:40:44.309Z,56.49
2022-08-17T08:43:26.743Z,56.24
2022-08-17T08:46:11.727Z,56.45
2022-08-17T08:49:06.472Z,56.39
2022-08-17T08:51:55.758Z,55.70
2022-08-17T08:54:35.003Z,55.23
2022-08-17T08:57:30.778Z,54.84
2022-08-17T09:00:16.656Z,54.83
2022-08-17T09:03:20.518Z,55.07
2022-08-17T09:05:54.305Z,56.35
2022-08-17T09:08:35.276Z,55.04
2022-08-17T09:11:06.404Z,54.34
2022-08-17T09:13:39.506Z,54.51
2022-08-17T09:16:10.586Z,55.07
2022-08-17T09:19:01.562Z,54.28
2022-08-17T09:21:54.868Z,53.78
2022-08-17T09:24:41.893Z,53.49
2022-08-17T09:27:15.909Z,52.90
2022-08-17T09:29:49.098Z,52.20
2022-08-17T09:32:31.958Z,52.29
2022-08-17T09:35:05.632Z,52.07
2022-08-17T09:37:56.753Z,51.68
2022-08-17T09:40:33.939Z,50.97
2022-08-17T09:43:19.676Z,49.85
2022-08-17T09:45:52.767Z,49.90
2022-08-17T09:48:33.923Z,49.85
2022-08-17T09:51:06.446Z,49.82
2022-08-17T09:53:36.282Z,49.75
2022-08-17T09:56:25.216Z,48.49
2022-08-17T09:59:04.210Z,48.69
2022-08-17T10:01:50.791Z,47.69
2022-08-17T10:04:48.349Z,47.10
2022-08-17T10:07:21.277Z,47.00
2022-08-17T10:10:13.570Z,46.64
2022-08-17T10:12:59.082Z,46.71
2022-08-17T10:15:54.854Z,46.49
2022-08-17T10:18:43.357Z,45.55
2022-08-17T10:21:47.023Z,45.60
2022-08-17T10:25:22.114Z,44.67
2022-08-17T10:27:52.672Z,45.14
2022-08-17T10:30:25.210Z,44.97
2022-08-17T10:32:59.419Z,44.40
2022-08-17T10:35:30.895Z,44.53
2022-08-17T10:38:21.534Z,44.59
2022-08-17T10:41:00.217Z,43.32
2022-08-17T10:43:29.687Z,43.64
2022-08-17T10:46:31.352Z,42.77
2022-08-17T10:49:17.268Z,41.71
2022-08-17T10:51:47.611Z,42.20
2022-08-17T10:54:39.146Z,40.84
2022-08-17T10:57:45.634Z,41.33
2022-08-17T11:00:28.634Z,40.89
2022-08-17T11:02:56.204Z,40.95
2022-08-17T11:05:52.583Z,40.19
2022-08-17T11:08:45.574Z,41.04
2022-08-17T11:11:36.260Z,40.96
2022-08-17T11:14:23.901Z,40.69
2022-08-17T11:17:08.267Z,40.37
2022-08-17T11:19:59.675Z,40.34
2022-08-17T11:22:33.387Z,40.72
2022-08-17T11:25:16.983Z,40.64
2022-08-17T11:27:44.736Z,40.29
2022-08-17T11:30:36.161Z,39.98
2022-08-17T11:33:29.030Z,39.71
2022-08-17T11:36:16.116Z,39.52
2022-08-17T11:39:03.434Z,38.48
2022-08-17T11:41:41.393Z,37.41
2022-08-17T11:44:20.595Z,37.18
2022-08-17T11:47:27.814Z,37.25
2022-08-17T11:50:19.362Z,37.67
2022-08-17T11:52:48.228Z,37.83
2022-08-17T11:55:37.488Z,36.17
2022-08-17T11:58:31.423Z,36.35
2022-08-17T12:01:06.200Z,36.79
2022-08-17T12:03:41.299Z,37.23
2022-08-17T12:06:31.109Z,37.60
2022-08-17T12:09:48.924Z,36.86
2022-08-17T12:12:33.110Z,36.53
2022-08-17T12:15:15.921Z,36.84
2022-08-17T12:18:03.009Z,37.28
2022-08-17T12:20:34.357Z,36.78
2022-08-17T12:23:10.523Z,36.55
2022-08-17T12:25:53.001Z,36.73
2022-08-17T12:28:27.286Z,37.74
2022-08-17T12:31:02.883Z,37.78
2022-08-17T12:33:40.012Z,37.70
2022-08-17T12:36:17.012Z,37.83
2022-08-17T12:39:14.512Z,37.32
2022-08-17T12:41:51.555Z,37.41
2022-08-17T12:44:22.611Z,37.13
2022-08-17T12:47:24.515Z,36.84
2022-08-17T12:50:28.234Z,36.67
2022-08-17T12:53:01.770Z,36.81
2022-08-17T12:55:32.581Z,36.62
2022-08-17T12:58:02.016Z,36.96
2022-08-17T13:00:35.927Z,36.91
2022-08-17T13:03:09.427Z,36.63
2022-08-17T13:05:54.541Z,37.33
2022-08-17T13:08:38.287Z,37.64
2022-08-17T13:11:06.450Z,37.07
2022-08-17T13:13:37.914Z,36.90
2022-08-17T13:16:12.149Z,37.19
2022-08-17T13:18:44.519Z,37.18
2022-08-17T13:21:41.242Z,37.14
2022-08-17T13:24:11.066Z,37.74
2022-08-17T13:26:40.531Z,37.86
2022-08-17T13:29:24.162Z,37.66
2022-08-17T13:32:14.412Z,37.44
2022-08-17T13:35:08.325Z,37.40
2022-08-17T13:37:35.549Z,37.88
2022-08-17T13:40:14.504Z,37.93
2022-08-17T13:42:53.963Z,37.68
2022-08-17T13:45:36.483Z,37.66
2022-08-17T13:48:16.255Z,37.05
2022-08-17T13:51:03.102Z,37.11
2022-08-17T13:53:50.787Z,37.27
2022-08-17T13:56:51.271Z,37.30
2022-08-17T13:59:53.677Z,36.89
2022-08-17T14:02:21.645Z,37.02
2022-08-17T14:04:48.888Z,36.93
2022-08-17T14:07:16.295Z,36.34
2022-08-17T14:09:54.729Z,36.19
2022-08-17T14:12:24.676Z,36.66
2022-08-17T14:14:54.136Z,36.85
2022-08-17T14:17:23.050Z,36.13
2022-08-17T14:19:51.101Z,36.59
2022-08-17T14:22:30.766Z,36.79
2022-08-17T14:24:58.768Z,37.34
2022-08-17T14:27:28.321Z,37.88
2022-08-17T14:29:56.085Z,37.46
2022-08-17T14:32:25.509Z,36.88
2022-08-17T14:34:52.776Z,36.59
2022-08-17T14:37:20.560Z,36.22
2022-08-17T14:39:47.751Z,36.71
2022-08-17T14:42:15.704Z,36.36
2022-08-17T14:44:42.879Z,36.11
2022-08-17T14:47:15.238Z,36.56
2022-08-17T14:49:42.645Z,37.02
2022-08-17T14:52:10.931Z,36.89
2022-08-17T14:54:42.491Z,37.33
2022-08-17T14:57:25.144Z,36.51
2022-08-17T15:00:00.208Z,36.83
2022-08-17T15:02:31.199Z,36.63
2022-08-17T15:04:59.900Z,36.76
2022-08-17T15:07:30.958Z,37.02
2022-08-17T15:10:02.514Z,37.13
2022-08-17T15:12:33.264Z,37.30
2022-08-17T15:15:05.092Z,37.08
2022-08-17T15:17:44.617Z,37.18
2022-08-17T15:20:18.711Z,37.58
2022-08-17T15:22:47.020Z,37.42
2022-08-17T15:25:14.272Z,36.92
2022-08-17T15:27:41.840Z,36.98
2022-08-17T15:30:10.126Z,37.22
2022-08-17T15:32:50.851Z,36.55
2022-08-17T15:35:22.023Z,36.85
2022-08-17T15:37:55.785Z,37.64
2022-08-17T15:40:23.289Z,36.86
2022-08-17T15:42:52.525Z,37.19
2022-08-17T15:45:31.471Z,37.16
2022-08-17T15:48:04.735Z,37.36
2022-08-17T15:50:46.695Z,37.61
2022-08-17T15:53:17.761Z,37.30
2022-08-17T16:03:13.702Z,37.31
2022-08-17T16:08:20.611Z,37.31
2022-08-17T16:11:29.265Z,38.06
2022-08-17T16:14:15.757Z,38.05
2022-08-17T16:20:21.098Z,38.73
2022-08-17T16:29:47.057Z,38.67
2022-08-17T16:32:55.503Z,38.10
2022-08-17T16:35:41.755Z,38.71
2022-08-17T16:38:44.283Z,38.66
2022-08-17T16:51:40.433Z,38.81
2022-08-17T16:54:38.625Z,39.23
2022-08-17T17:10:23.658Z,39.97
2022-08-17T17:13:23.347Z,39.98
2022-08-17T17:23:18.980Z,40.31
2022-08-17T18:31:09.588Z,43.43
2022-08-17T18:33:37.091Z,43.82
2022-08-17T19:36:13.201Z,45.63
2022-08-17T19:38:45.143Z,46.39
2022-08-17T19:41:30.108Z,46.72
2022-08-17T19:44:35.441Z,47.34
2022-08-17T19:47:43.127Z,47.62
2022-08-17T19:50:22.299Z,48.13
2022-08-17T19:53:54.278Z,48.77
2022-08-17T19:56:29.235Z,48.64
2022-08-17T19:59:14.429Z,48.83
2022-08-17T20:01:54.490Z,48.79
2022-08-17T20:04:32.484Z,49.57
2022-08-17T20:07:24.290Z,50.17
2022-08-17T20:09:55.262Z,49.76
2022-08-17T20:12:24.528Z,49.88
2022-08-17T20:15:08.877Z,50.63
2022-08-17T20:17:39.003Z,50.31
2022-08-17T20:20:19.786Z,50.90
2022-08-17T20:22:59.495Z,51.68
2022-08-17T20:25:36.732Z,51.92
2022-08-17T20:28:07.057Z,51.18
2022-08-17T20:30:41.232Z,51.53
2022-08-17T20:33:29.301Z,51.86
2022-08-17T20:36:11.934Z,51.98
2022-08-17T22:42:06.562Z,51.39
2022-08-17T22:44:44.569Z,51.11
2022-08-17T22:47:15.253Z,50.98
2022-08-17T22:49:57.935Z,50.96
2022-08-17T22:53:02.862Z,51.03
2022-08-17T22:55:49.850Z,51.23
2022-08-17T22:58:38.197Z,51.10
2022-08-17T23:01:26.096Z,51.23
2022-08-17T23:03:57.950Z,51.00
2022-08-17T23:06:25.137Z,50.99
2022-08-17T23:08:56.645Z,51.29
2022-08-17T23:11:42.894Z,51.39
2022-08-17T23:14:15.952Z,51.61
2022-08-17T23:16:43.130Z,51.64
2022-08-17T23:19:11.523Z,51.39
2022-08-17T23:21:38.644Z,51.41
2022-08-17T23:24:06.958Z,51.74
2022-08-17T23:26:38.069Z,51.61
2022-08-17T23:29:06.635Z,51.98
2022-08-17T23:31:34.856Z,51.90
2022-08-17T23:34:03.302Z,51.80
2022-08-17T23:36:31.805Z,51.55
2022-08-17T23:38:58.974Z,52.22
2022-08-17T23:41:27.148Z,51.86
2022-08-17T23:43:58.339Z,52.31
2022-08-17T23:46:25.450Z,52.00
2022-08-17T23:48:54.324Z,52.36
2022-08-17T23:51:27.490Z,52.19
2022-08-17T23:54:08.098Z,52.48
2022-08-17T23:56:42.412Z,52.47
2022-08-17T23:59:09.642Z,52.23
